Spellbound — WDF2806 — position and weather

sailwx.info

Track history (hours):
 
Tides and Currents Weather Stations Pressure Air Temp Water Temp Dewpoint Dewpoint Depression Visibility Wind Speed Wind Dir Waves Ship Positions

Spellbound

Owner: reckling mrs, kathy r, cheyenne, WY. More information available from US FCC via Universal Licensing System and Coast Guard Vessel Documentation Center.

Last reported at 2016-May-14 17:32 UTC. Time now 2016-May-31 03:57 UTC.
Position N 42°52' W 070°39'.
Warning: this ship's position is 16 days out of date.

Type: Pleasure craft. MMSI: 367432110.

Date/timePositionNaut miles runAvg speedWind from/ knotsBaromVisibWave heightAir tempDewpointWater temp
2016-May-14 17:32N 42°52' W 070°39'7 6.9
2016-May-14 16:33N 42°46' W 070°37'7 6.5
2016-May-14 15:33N 42°40' W 070°33'6 5.6
2016-May-14 14:33N 42°35' W 070°37'2 2.1
2016-May-14 13:33N 42°37' W 070°39'0 0.0
2016-May-14 12:33N 42°37' W 070°39'0 0.0
2016-May-14 11:33N 42°37' W 070°39'0 0.0
2016-May-14 10:33N 42°37' W 070°39'0 0.0
2016-May-14 09:27N 42°37' W 070°39'0 0.0
2016-May-14 08:33N 42°37' W 070°39'0 0.0
2016-May-14 07:33N 42°37' W 070°39'0 0.0
2016-May-14 06:33N 42°37' W 070°39'0 0.0
2016-May-14 05:33N 42°37' W 070°39'0 0.0
2016-May-14 04:33N 42°37' W 070°39'0 0.0
2016-May-14 03:33N 42°37' W 070°39'0 0.0
2016-May-14 00:06N 42°37' W 070°39'0 0.0
2016-May-13 23:33N 42°37' W 070°39'0 0.0
2016-May-13 22:33N 42°37' W 070°39'6 5.8
2016-May-13 21:33N 42°31' W 070°39'7 7.2
2016-May-13 20:33N 42°24' W 070°38'  
2016-May-07 10:27N 39°42' W 073°53'4 4.8
2016-May-07 09:33N 39°39' W 073°57'5 4.8
2016-May-07 08:31N 39°35' W 073°60'  
Track history (hours):
 
Tides and Currents Weather Stations Pressure Air Temp Water Temp Dewpoint Dewpoint Depression Visibility Wind Speed Wind Dir Waves Ship Positions

Spellbound

Owner: reckling mrs, kathy r, cheyenne, WY. More information available from US FCC via Universal Licensing System and Coast Guard Vessel Documentation Center.

Last reported at 2016-May-14 17:32 UTC. Time now 2016-May-31 03:57 UTC.
Position N 42°52' W 070°39'.
Warning: this ship's position is 16 days out of date.

Type: Pleasure craft. MMSI: 367432110.

Date/timePositionNaut miles runAvg speedWind from/ knotsBaromVisibWave heightAir tempDewpointWater temp
2016-May-14 17:32N 42°52' W 070°39'7 6.9
2016-May-14 16:33N 42°46' W 070°37'7 6.5
2016-May-14 15:33N 42°40' W 070°33'6 5.6
2016-May-14 14:33N 42°35' W 070°37'2 2.1
2016-May-14 13:33N 42°37' W 070°39'0 0.0
2016-May-14 12:33N 42°37' W 070°39'0 0.0
2016-May-14 11:33N 42°37' W 070°39'0 0.0
2016-May-14 10:33N 42°37' W 070°39'0 0.0
2016-May-14 09:27N 42°37' W 070°39'0 0.0
2016-May-14 08:33N 42°37' W 070°39'0 0.0
2016-May-14 07:33N 42°37' W 070°39'0 0.0
2016-May-14 06:33N 42°37' W 070°39'0 0.0
2016-May-14 05:33N 42°37' W 070°39'0 0.0
2016-May-14 04:33N 42°37' W 070°39'0 0.0
2016-May-14 03:33N 42°37' W 070°39'0 0.0
2016-May-14 00:06N 42°37' W 070°39'0 0.0
2016-May-13 23:33N 42°37' W 070°39'0 0.0
2016-May-13 22:33N 42°37' W 070°39'6 5.8
2016-May-13 21:33N 42°31' W 070°39'7 7.2
2016-May-13 20:33N 42°24' W 070°38'  
2016-May-07 10:27N 39°42' W 073°53'4 4.8
2016-May-07 09:33N 39°39' W 073°57'5 4.8
2016-May-07 08:31N 39°35' W 073°60'  

Dump ship's entire track history